createdAt,value
2022-12-11T00:01:19.284Z,0.71
2022-12-11T00:03:46.874Z,0.74
2022-12-11T00:06:16.877Z,0.76
2022-12-11T00:08:43.504Z,0.79
2022-12-11T00:11:13.379Z,0.77
2022-12-11T00:13:39.915Z,0.75
2022-12-11T00:16:06.578Z,0.67
2022-12-11T00:18:33.013Z,0.69
2022-12-11T00:21:05.022Z,0.72
2022-12-11T00:23:31.658Z,0.59
2022-12-11T00:25:58.323Z,0.69
2022-12-11T00:28:24.733Z,0.68
2022-12-11T00:30:51.198Z,0.65
2022-12-11T00:33:17.835Z,0.64
2022-12-11T00:35:46.776Z,0.69
2022-12-11T00:38:18.916Z,0.70
2022-12-11T00:40:45.952Z,0.69
2022-12-11T00:43:12.895Z,0.65
2022-12-11T00:45:42.271Z,0.67
2022-12-11T00:48:09.546Z,0.68
2022-12-11T00:50:36.689Z,0.61
2022-12-11T00:53:04.970Z,0.67
2022-12-11T00:55:31.806Z,0.67
2022-12-11T00:58:01.058Z,0.60
2022-12-11T01:00:27.464Z,0.62
2022-12-11T01:02:54.028Z,0.61
2022-12-11T01:05:21.249Z,0.62
2022-12-11T01:07:48.008Z,0.62
2022-12-11T01:10:24.533Z,0.61
2022-12-11T01:13:00.486Z,0.66
2022-12-11T01:15:37.464Z,0.58
2022-12-11T01:18:06.512Z,0.60
2022-12-11T01:20:36.496Z,0.60
2022-12-11T01:23:03.147Z,0.60
2022-12-11T01:25:29.647Z,0.56
2022-12-11T01:27:56.242Z,0.62
2022-12-11T01:30:24.912Z,0.53
2022-12-11T01:32:52.272Z,0.63
2022-12-11T01:35:19.720Z,0.62
2022-12-11T01:37:47.418Z,0.61
2022-12-11T01:40:15.935Z,0.63
2022-12-11T01:42:42.661Z,0.62
2022-12-11T01:45:38.928Z,0.64
2022-12-11T01:48:09.320Z,0.59
2022-12-11T01:50:58.193Z,0.62
2022-12-11T01:53:33.290Z,0.64
2022-12-11T01:56:00.272Z,0.58
2022-12-11T01:58:33.865Z,0.63
2022-12-11T02:01:02.517Z,0.58
2022-12-11T02:03:29.003Z,0.61
2022-12-11T02:06:01.440Z,0.57
2022-12-11T02:08:28.480Z,0.57
2022-12-11T02:11:06.013Z,0.66
2022-12-11T02:13:56.412Z,0.68
2022-12-11T02:16:34.827Z,0.69
2022-12-11T02:19:40.103Z,0.69
2022-12-11T02:22:10.603Z,0.68
2022-12-11T02:24:47.989Z,0.70
2022-12-11T02:27:21.445Z,0.69
2022-12-11T02:30:02.473Z,0.66
2022-12-11T02:32:51.873Z,0.72
2022-12-11T02:35:34.646Z,0.55
2022-12-11T02:38:05.632Z,0.68
2022-12-11T02:40:36.806Z,0.68
2022-12-11T02:43:07.168Z,0.61
2022-12-11T02:45:35.409Z,0.61
2022-12-11T02:48:03.957Z,0.66
2022-12-11T02:50:31.008Z,0.61
2022-12-11T02:53:00.661Z,0.61
2022-12-11T02:55:29.678Z,0.62
2022-12-11T02:58:17.963Z,0.67
2022-12-11T03:00:46.350Z,0.55
2022-12-11T03:03:13.834Z,0.59
2022-12-11T03:05:41.885Z,0.63
2022-12-11T03:08:08.726Z,0.65
2022-12-11T03:10:35.239Z,0.65
2022-12-11T03:13:02.829Z,0.66
2022-12-11T03:15:37.388Z,0.65
2022-12-11T03:18:29.894Z,0.67
2022-12-11T03:21:09.314Z,0.62
2022-12-11T03:23:49.628Z,0.67
2022-12-11T03:26:19.462Z,0.67
2022-12-11T03:28:48.135Z,0.64
2022-12-11T03:31:27.741Z,0.66
2022-12-11T03:34:01.180Z,0.65
2022-12-11T03:36:34.651Z,0.65
2022-12-11T03:39:13.311Z,0.67
2022-12-11T03:41:41.093Z,0.66
2022-12-11T03:44:09.060Z,0.67
2022-12-11T03:46:39.518Z,0.65
2022-12-11T03:49:10.656Z,0.61
2022-12-11T03:51:38.912Z,0.65
2022-12-11T03:54:06.580Z,0.61
2022-12-11T03:56:36.796Z,0.65
2022-12-11T03:59:03.122Z,0.76
2022-12-11T04:01:29.879Z,0.69
2022-12-11T04:03:56.585Z,0.64
2022-12-11T04:06:23.178Z,0.65
2022-12-11T04:08:49.626Z,0.66
2022-12-11T04:11:34.349Z,0.57
2022-12-11T04:14:28.157Z,0.63
2022-12-11T04:16:55.536Z,0.53
2022-12-11T04:19:41.382Z,0.45
2022-12-11T04:22:27.921Z,0.60
2022-12-11T04:24:54.418Z,0.54
2022-12-11T04:27:39.412Z,0.58
2022-12-11T04:30:11.305Z,0.58
2022-12-11T04:32:37.742Z,0.58
2022-12-11T04:35:06.180Z,0.58
2022-12-11T04:37:33.031Z,0.52
2022-12-11T04:39:59.423Z,0.55
2022-12-11T04:42:25.824Z,0.51
2022-12-11T04:44:52.247Z,0.49
2022-12-11T04:47:18.786Z,0.56
2022-12-11T04:49:45.203Z,0.50
2022-12-11T04:52:11.834Z,0.51
2022-12-11T04:54:38.470Z,0.40
2022-12-11T04:57:04.850Z,0.51
2022-12-11T04:59:32.924Z,0.47
2022-12-11T05:01:59.676Z,0.44
2022-12-11T05:04:26.386Z,0.45
2022-12-11T05:06:52.877Z,0.45
2022-12-11T05:09:19.446Z,0.48
2022-12-11T05:11:45.875Z,0.41
2022-12-11T05:14:12.427Z,0.45
2022-12-11T05:16:38.951Z,0.45
2022-12-11T05:19:05.432Z,0.40
2022-12-11T05:21:35.237Z,0.47
2022-12-11T05:24:05.111Z,0.38
2022-12-11T05:26:31.525Z,0.44
2022-12-11T05:28:57.947Z,0.48
2022-12-11T05:31:26.866Z,0.49
2022-12-11T05:33:54.431Z,0.50
2022-12-11T05:36:23.893Z,0.37
2022-12-11T05:38:51.630Z,0.51
2022-12-11T05:41:21.570Z,0.39
2022-12-11T05:43:48.633Z,0.52
2022-12-11T05:46:21.154Z,0.47
2022-12-11T05:48:50.063Z,0.45
2022-12-11T05:51:17.801Z,0.53
2022-12-11T05:53:46.364Z,0.53
2022-12-11T05:56:33.918Z,0.50
2022-12-11T05:59:01.894Z,0.55
2022-12-11T06:01:35.807Z,0.53
2022-12-11T06:04:04.146Z,0.52
2022-12-11T06:06:30.671Z,0.57
2022-12-11T06:08:59.229Z,0.57
2022-12-11T06:11:28.281Z,0.58
2022-12-11T06:13:55.660Z,0.54
2022-12-11T06:16:22.678Z,0.55
2022-12-11T06:18:49.355Z,0.57
2022-12-11T06:21:21.639Z,0.56
2022-12-11T06:23:50.215Z,0.55
2022-12-11T06:26:18.071Z,0.50
2022-12-11T06:28:44.927Z,0.47
2022-12-11T06:31:11.510Z,0.33
2022-12-11T06:33:38.318Z,0.31
2022-12-11T06:36:13.974Z,0.28
2022-12-11T06:38:40.718Z,0.19
2022-12-11T06:41:08.707Z,0.08
2022-12-11T06:43:37.399Z,-0.02
2022-12-11T06:46:08.994Z,-0.17
2022-12-11T06:48:35.509Z,-0.31
2022-12-11T06:51:22.613Z,-0.39
2022-12-11T06:53:54.036Z,-0.57
2022-12-11T06:56:21.578Z,-0.69
2022-12-11T06:58:48.348Z,-0.95
2022-12-11T07:01:20.871Z,-1.08
2022-12-11T07:03:47.828Z,-1.17
2022-12-11T07:06:14.933Z,-1.31
2022-12-11T07:08:42.103Z,-1.35
2022-12-11T07:11:11.517Z,-1.48
2022-12-11T07:13:38.499Z,-1.56
2022-12-11T07:16:10.529Z,-1.66
2022-12-11T07:18:43.186Z,-1.75
2022-12-11T07:21:12.162Z,-1.86
2022-12-11T07:23:38.654Z,-2.06
2022-12-11T07:26:06.521Z,-2.14
2022-12-11T07:28:33.945Z,-2.16
2022-12-11T07:31:04.976Z,-2.24
2022-12-11T07:33:31.366Z,-2.32
2022-12-11T07:36:02.114Z,-2.45
2022-12-11T07:38:28.632Z,-2.44
2022-12-11T07:40:55.084Z,-2.51
2022-12-11T07:43:21.543Z,-2.59
2022-12-11T07:45:48.074Z,-2.70
2022-12-11T07:48:14.504Z,-2.56
2022-12-11T07:50:41.028Z,-2.62
2022-12-11T07:53:07.739Z,-2.60
2022-12-11T07:55:34.201Z,-2.62
2022-12-11T07:58:00.607Z,-2.81
2022-12-11T08:00:27.064Z,-2.80
2022-12-11T08:02:53.480Z,-2.70
2022-12-11T08:05:19.966Z,-2.74
2022-12-11T08:07:47.044Z,-2.75
2022-12-11T08:10:13.532Z,-2.81
2022-12-11T08:12:39.972Z,-2.78
2022-12-11T08:15:07.262Z,-2.93
2022-12-11T08:17:39.833Z,-2.84
2022-12-11T08:20:07.301Z,-2.80
2022-12-11T08:22:34.203Z,-2.81
2022-12-11T08:25:00.633Z,-2.81
2022-12-11T08:27:27.034Z,-2.85
2022-12-11T08:29:53.499Z,-2.85
2022-12-11T08:32:19.932Z,-2.80
2022-12-11T08:34:46.476Z,-2.82
2022-12-11T08:37:13.598Z,-2.78
2022-12-11T08:39:40.031Z,-2.72
2022-12-11T08:42:07.187Z,-2.76
2022-12-11T08:44:33.864Z,-2.71
2022-12-11T08:47:00.326Z,-2.65
2022-12-11T08:49:32.696Z,-2.63
2022-12-11T08:52:00.755Z,-2.54
2022-12-11T08:54:27.179Z,-2.46
2022-12-11T08:56:57.704Z,-2.44
2022-12-11T08:59:25.658Z,-2.31
2022-12-11T09:01:52.289Z,-2.24
2022-12-11T09:04:18.728Z,-2.21
2022-12-11T09:06:45.104Z,-2.15
2022-12-11T09:09:12.587Z,-2.08
2022-12-11T09:11:39.182Z,-1.95
2022-12-11T09:14:07.932Z,-1.88
2022-12-11T09:16:37.725Z,-1.76
2022-12-11T09:19:04.450Z,-1.67
2022-12-11T09:21:30.973Z,-1.63
2022-12-11T09:23:59.362Z,-1.53
2022-12-11T09:26:26.961Z,-1.55
2022-12-11T09:28:54.255Z,-1.42
2022-12-11T09:31:26.899Z,-1.28
2022-12-11T09:34:00.811Z,-1.20
2022-12-11T09:36:28.041Z,-1.11
2022-12-11T09:39:01.149Z,-1.03
2022-12-11T09:41:51.842Z,-0.93
2022-12-11T09:44:48.476Z,-0.83
2022-12-11T09:47:21.075Z,-0.78
2022-12-11T09:49:51.332Z,-0.75
2022-12-11T09:52:29.491Z,-0.68
2022-12-11T09:55:01.810Z,-0.56
2022-12-11T09:57:39.359Z,-0.44
2022-12-11T10:00:14.624Z,-0.21
2022-12-11T10:02:50.157Z,-0.03
2022-12-11T10:05:29.791Z,0.16
2022-12-11T10:08:22.565Z,0.40
2022-12-11T10:11:00.733Z,0.65
2022-12-11T10:14:08.649Z,0.94
2022-12-11T10:16:47.164Z,1.23
2022-12-11T10:19:34.739Z,1.59
2022-12-11T10:22:02.239Z,1.82
2022-12-11T10:25:12.606Z,2.15
2022-12-11T10:27:39.252Z,2.52
2022-12-11T10:30:15.594Z,2.74
2022-12-11T10:32:59.813Z,2.99
2022-12-11T10:35:35.710Z,3.27
2022-12-11T10:38:21.132Z,3.54
2022-12-11T10:40:52.941Z,3.73
2022-12-11T10:43:19.386Z,3.91
2022-12-11T10:45:55.283Z,4.14
2022-12-11T10:48:22.229Z,4.24
2022-12-11T10:51:02.613Z,4.44
2022-12-11T10:53:31.283Z,4.57
2022-12-11T10:56:00.936Z,4.67
2022-12-11T10:58:34.263Z,4.78
2022-12-11T11:01:09.059Z,4.88
2022-12-11T11:03:41.015Z,5.01
2022-12-11T11:06:19.207Z,5.13
2022-12-11T11:08:54.879Z,5.22
2022-12-11T11:11:26.847Z,5.23
2022-12-11T11:14:07.421Z,5.33
2022-12-11T11:16:37.993Z,5.37
2022-12-11T11:19:06.354Z,5.46
2022-12-11T11:21:34.806Z,5.39
2022-12-11T11:24:01.362Z,5.42
2022-12-11T11:27:04.428Z,5.47
2022-12-11T11:29:29.098Z,5.50
2022-12-11T11:31:55.583Z,5.53
2022-12-11T11:34:22.343Z,5.53
2022-12-11T11:36:58.128Z,5.60
2022-12-11T11:39:45.149Z,5.63
2022-12-11T11:42:50.396Z,5.86
2022-12-11T11:45:44.379Z,5.92
2022-12-11T11:48:34.244Z,5.92
2022-12-11T11:51:21.027Z,5.97
2022-12-11T11:53:50.918Z,6.06
2022-12-11T11:56:21.181Z,6.15
2022-12-11T11:58:56.085Z,6.33
2022-12-11T12:01:22.641Z,6.20
2022-12-11T12:03:50.357Z,6.14
2022-12-11T12:06:52.077Z,6.27
2022-12-11T12:09:27.745Z,6.23
2022-12-11T12:12:20.917Z,6.24
2022-12-11T12:14:54.578Z,6.25
2022-12-11T12:17:37.953Z,6.29
2022-12-11T12:20:13.448Z,6.32
2022-12-11T12:22:52.250Z,6.35
2022-12-11T12:26:12.701Z,6.41
2022-12-11T12:28:57.776Z,6.52
2022-12-11T12:32:01.481Z,6.34
2022-12-11T12:34:43.725Z,6.24
2022-12-11T12:37:34.815Z,6.19
2022-12-11T12:40:26.198Z,6.12
2022-12-11T12:42:55.316Z,6.07
2022-12-11T12:45:49.585Z,5.98
2022-12-11T12:48:16.574Z,5.94
2022-12-11T12:50:49.382Z,5.98
2022-12-11T12:53:23.721Z,6.14
2022-12-11T12:55:51.807Z,6.11
2022-12-11T12:58:28.453Z,6.17
2022-12-11T13:01:06.490Z,6.14
2022-12-11T13:03:37.970Z,6.15
2022-12-11T13:06:13.529Z,6.17
2022-12-11T13:08:49.657Z,6.18
2022-12-11T13:11:18.593Z,6.14
2022-12-11T13:14:05.257Z,6.21
2022-12-11T13:16:38.342Z,6.14
2022-12-11T13:19:22.623Z,6.17
2022-12-11T13:22:03.833Z,6.15
2022-12-11T13:24:34.156Z,6.24
2022-12-11T13:27:22.074Z,6.24
2022-12-11T13:29:48.688Z,6.24
2022-12-11T13:32:18.070Z,6.28
2022-12-11T13:34:53.614Z,6.23
2022-12-11T13:37:47.252Z,6.35
2022-12-11T13:40:27.454Z,6.28
2022-12-11T13:43:01.209Z,6.20
2022-12-11T13:45:37.283Z,6.03
2022-12-11T13:48:05.825Z,5.90
2022-12-11T13:50:34.556Z,5.79
2022-12-11T13:53:02.877Z,5.60
2022-12-11T13:55:34.579Z,5.53
2022-12-11T13:58:01.456Z,5.43
2022-12-11T14:00:32.112Z,5.36
2022-12-11T14:03:04.496Z,5.36
2022-12-11T14:05:31.217Z,5.26
2022-12-11T14:08:02.347Z,5.23
2022-12-11T14:10:32.392Z,5.12
2022-12-11T14:13:31.162Z,4.95
2022-12-11T14:15:57.740Z,4.75
2022-12-11T14:18:29.096Z,4.57
2022-12-11T14:20:57.976Z,4.39
2022-12-11T14:23:36.032Z,4.20
2022-12-11T14:26:24.538Z,3.98
2022-12-11T14:28:52.109Z,3.77
2022-12-11T14:31:30.967Z,3.57
2022-12-11T14:34:33.615Z,3.37
2022-12-11T14:37:02.663Z,3.11
2022-12-11T14:39:41.189Z,2.99
2022-12-11T14:42:12.780Z,2.81
2022-12-11T14:45:23.820Z,2.64
2022-12-11T14:47:52.775Z,2.38
2022-12-11T14:50:19.108Z,2.25
2022-12-11T14:52:53.427Z,2.09
2022-12-11T14:55:30.850Z,1.94
2022-12-11T14:58:02.683Z,1.75
2022-12-11T15:00:37.502Z,1.61
2022-12-11T15:03:27.498Z,1.49
2022-12-11T15:05:56.690Z,1.33
2022-12-11T15:08:30.171Z,1.21
2022-12-11T15:11:13.413Z,1.09
2022-12-11T15:13:55.599Z,0.96
2022-12-11T15:16:24.682Z,0.81
2022-12-11T15:18:53.642Z,0.69
2022-12-11T15:21:29.511Z,0.62
2022-12-11T15:23:58.391Z,0.56
2022-12-11T15:26:47.844Z,0.45
2022-12-11T15:29:35.518Z,0.37
2022-12-11T15:32:03.540Z,0.38
2022-12-11T15:34:35.308Z,0.35
2022-12-11T15:37:02.108Z,0.28
2022-12-11T15:39:28.558Z,0.29
2022-12-11T15:41:55.017Z,0.24
2022-12-11T15:44:23.712Z,0.25
2022-12-11T15:46:50.639Z,0.25
2022-12-11T15:49:18.900Z,0.16
2022-12-11T15:51:45.898Z,0.20
2022-12-11T15:54:12.349Z,0.16
2022-12-11T15:56:39.965Z,0.13
2022-12-11T15:59:06.952Z,0.09
2022-12-11T16:01:33.796Z,0.12
2022-12-11T16:04:04.918Z,0.12
2022-12-11T16:06:31.970Z,0.10
2022-12-11T16:08:58.619Z,0.11
2022-12-11T16:11:25.047Z,0.06
2022-12-11T16:13:51.479Z,0.10
2022-12-11T16:16:17.895Z,0.02
2022-12-11T16:18:44.362Z,0.07
2022-12-11T16:21:10.764Z,0.01
2022-12-11T16:23:37.346Z,0.04
2022-12-11T16:26:09.580Z,0.05
2022-12-11T16:28:36.031Z,0.02
2022-12-11T16:31:02.793Z,-0.04
2022-12-11T16:33:29.347Z,0.00
2022-12-11T16:35:55.790Z,-0.03
2022-12-11T16:38:22.223Z,-0.03
2022-12-11T16:40:48.719Z,-0.08
2022-12-11T16:43:15.199Z,-0.04
2022-12-11T16:45:43.202Z,-0.05
2022-12-11T16:48:09.637Z,-0.09
2022-12-11T16:50:39.797Z,-0.16
2022-12-11T16:53:06.360Z,-0.04
2022-12-11T16:55:32.735Z,-0.11
2022-12-11T16:57:59.142Z,-0.12
2022-12-11T17:00:25.645Z,-0.16
2022-12-11T17:02:52.072Z,-0.13
2022-12-11T17:05:18.901Z,-0.11
2022-12-11T17:07:45.365Z,-0.09
2022-12-11T17:10:11.891Z,-0.05
2022-12-11T17:12:38.954Z,-0.07
2022-12-11T17:15:05.947Z,-0.10
2022-12-11T17:17:32.364Z,0.02
2022-12-11T17:19:58.951Z,0.07
2022-12-11T17:22:25.354Z,0.09
2022-12-11T17:24:51.816Z,0.11
2022-12-11T17:27:18.236Z,0.03
2022-12-11T17:29:44.907Z,0.07
2022-12-11T17:32:11.689Z,0.15
2022-12-11T17:34:38.881Z,0.14
2022-12-11T17:37:06.176Z,0.17
2022-12-11T17:39:32.594Z,0.15
2022-12-11T17:41:59.028Z,0.19
2022-12-11T17:44:26.771Z,0.19
2022-12-11T17:46:53.649Z,0.17
2022-12-11T17:49:20.187Z,0.14
2022-12-11T17:51:46.719Z,0.09
2022-12-11T17:54:13.673Z,0.07
2022-12-11T17:56:40.821Z,0.05
2022-12-11T17:59:07.248Z,0.08
2022-12-11T18:01:34.052Z,0.00
2022-12-11T18:04:01.835Z,-0.02
2022-12-11T18:06:29.455Z,0.00
2022-12-11T18:08:56.873Z,-0.01
2022-12-11T18:11:23.865Z,0.00
2022-12-11T18:13:51.823Z,0.02
2022-12-11T18:16:19.738Z,0.05
2022-12-11T18:18:47.654Z,0.05
2022-12-11T18:21:17.127Z,0.13
2022-12-11T18:23:44.097Z,0.10
2022-12-11T18:26:11.543Z,0.20
2022-12-11T18:28:37.946Z,0.21
2022-12-11T18:31:04.751Z,0.25
2022-12-11T18:33:32.137Z,0.19
2022-12-11T18:35:58.752Z,0.32
2022-12-11T18:38:25.278Z,0.31
2022-12-11T18:40:51.661Z,0.34
2022-12-11T18:43:18.095Z,0.36
2022-12-11T18:45:47.806Z,0.31
2022-12-11T18:48:15.131Z,0.34
2022-12-11T18:50:49.234Z,0.34
2022-12-11T18:53:17.010Z,0.31
2022-12-11T18:55:45.506Z,0.31
2022-12-11T18:58:14.304Z,0.27
2022-12-11T19:00:42.172Z,0.27
2022-12-11T19:03:09.860Z,0.29
2022-12-11T19:05:36.518Z,0.28
2022-12-11T19:08:03.743Z,0.30
2022-12-11T19:10:30.190Z,0.29
2022-12-11T19:12:56.988Z,0.31
2022-12-11T19:15:25.533Z,0.29
2022-12-11T19:17:52.068Z,0.34
2022-12-11T19:20:47.497Z,0.42
2022-12-11T19:23:05.805Z,0.46
2022-12-11T19:25:32.652Z,0.41
2022-12-11T19:27:59.140Z,0.48
2022-12-11T19:30:25.638Z,0.48
2022-12-11T19:32:52.042Z,0.43
2022-12-11T19:35:18.639Z,0.52
2022-12-11T19:37:45.086Z,0.51
2022-12-11T19:40:11.935Z,0.56
2022-12-11T19:42:38.572Z,0.50
2022-12-11T19:45:05.377Z,0.54
2022-12-11T19:47:31.989Z,0.59
2022-12-11T19:49:58.402Z,0.54
2022-12-11T19:52:24.832Z,0.63
2022-12-11T19:54:51.279Z,0.70
2022-12-11T19:57:17.754Z,0.67
2022-12-11T19:59:44.179Z,0.70
2022-12-11T20:02:12.179Z,0.65
2022-12-11T20:04:38.633Z,0.72
2022-12-11T20:07:05.129Z,0.70
2022-12-11T20:09:33.544Z,0.77
2022-12-11T20:11:59.931Z,0.77
2022-12-11T20:14:27.184Z,0.83
2022-12-11T20:17:11.860Z,0.85
2022-12-11T20:19:39.461Z,0.80
2022-12-11T20:22:06.092Z,0.87
2022-12-11T20:24:32.992Z,0.88
2022-12-11T20:27:00.155Z,0.87
2022-12-11T20:29:26.651Z,0.85
2022-12-11T20:31:53.110Z,0.88
2022-12-11T20:34:20.111Z,0.94
2022-12-11T20:36:49.385Z,0.95
2022-12-11T20:39:15.739Z,1.00
2022-12-11T20:41:42.306Z,1.04
2022-12-11T20:44:08.739Z,1.00
2022-12-11T20:46:35.245Z,1.05
2022-12-11T20:49:01.748Z,1.04
2022-12-11T20:51:28.970Z,1.10
2022-12-11T20:53:59.450Z,1.08
2022-12-11T20:56:28.840Z,1.16
2022-12-11T20:58:55.883Z,1.11
2022-12-11T21:01:24.544Z,1.05
2022-12-11T21:03:52.945Z,1.15
2022-12-11T21:06:31.014Z,1.17
2022-12-11T21:08:59.216Z,1.17
2022-12-11T21:11:25.893Z,1.15
2022-12-11T21:13:53.829Z,1.10
2022-12-11T21:16:20.755Z,1.08
2022-12-11T21:18:48.251Z,1.04
2022-12-11T21:21:15.138Z,1.04
2022-12-11T21:23:41.823Z,1.02
2022-12-11T21:26:08.591Z,1.01
2022-12-11T21:28:35.850Z,1.07
2022-12-11T21:31:10.766Z,1.05
2022-12-11T21:33:37.563Z,1.10
2022-12-11T21:36:06.866Z,1.09
2022-12-11T21:38:33.534Z,1.08
2022-12-11T21:41:10.751Z,1.14
2022-12-11T21:43:42.808Z,1.08
2022-12-11T21:46:26.777Z,1.08
2022-12-11T21:48:54.024Z,1.10
2022-12-11T21:51:29.745Z,1.19
2022-12-11T21:54:00.741Z,1.27
2022-12-11T21:56:28.683Z,1.18
2022-12-11T21:58:55.405Z,1.08
2022-12-11T22:01:26.408Z,1.09
2022-12-11T22:03:53.525Z,1.17
2022-12-11T22:06:20.571Z,1.12
2022-12-11T22:08:49.083Z,1.19
2022-12-11T22:11:19.094Z,1.19
2022-12-11T22:13:47.830Z,1.15
2022-12-11T22:16:14.311Z,1.17
2022-12-11T22:18:40.844Z,1.19
2022-12-11T22:21:07.737Z,1.25
2022-12-11T22:23:34.201Z,1.20
2022-12-11T22:26:00.950Z,1.19
2022-12-11T22:28:27.520Z,1.21
2022-12-11T22:30:54.001Z,1.24
2022-12-11T22:33:21.821Z,1.26
2022-12-11T22:36:03.507Z,1.28
2022-12-11T22:38:29.928Z,1.22
2022-12-11T22:40:56.369Z,1.25
2022-12-11T22:43:22.769Z,1.26
2022-12-11T22:45:49.416Z,1.21
2022-12-11T22:48:16.017Z,1.24
2022-12-11T22:50:43.447Z,1.22
2022-12-11T22:53:10.092Z,1.16
2022-12-11T22:55:39.868Z,1.17
2022-12-11T22:58:07.371Z,1.15
2022-12-11T23:00:33.918Z,1.18
2022-12-11T23:03:00.869Z,1.15
2022-12-11T23:05:27.349Z,1.13
2022-12-11T23:07:53.924Z,1.13
2022-12-11T23:10:20.575Z,1.15
2022-12-11T23:12:47.022Z,1.09
2022-12-11T23:15:13.720Z,1.14
2022-12-11T23:17:40.314Z,1.12
2022-12-11T23:20:07.349Z,1.05
2022-12-11T23:22:33.885Z,1.00
2022-12-11T23:25:00.331Z,0.93
2022-12-11T23:27:26.792Z,0.95
2022-12-11T23:29:53.357Z,0.88
2022-12-11T23:32:19.743Z,0.81
2022-12-11T23:34:46.203Z,0.75
2022-12-11T23:37:12.671Z,0.66
2022-12-11T23:39:39.121Z,0.62
2022-12-11T23:42:05.737Z,0.51
2022-12-11T23:44:32.181Z,0.49
2022-12-11T23:46:58.603Z,0.46
2022-12-11T23:49:24.988Z,0.35
2022-12-11T23:51:51.380Z,0.31
2022-12-11T23:54:17.754Z,0.25
2022-12-11T23:56:44.195Z,0.30
2022-12-11T23:59:14.241Z,0.29
